createdAt,value
2022-12-11T00:00:27.574Z,92.26
2022-12-11T00:01:27.674Z,92.26
2022-12-11T00:02:27.872Z,92.47
2022-12-11T00:03:28.079Z,92.47
2022-12-11T00:04:28.043Z,92.57
2022-12-11T00:05:28.192Z,92.47
2022-12-11T00:06:28.341Z,92.78
2022-12-11T00:07:28.443Z,92.78
2022-12-11T00:08:28.647Z,92.88
2022-12-11T00:09:28.730Z,92.88
2022-12-11T00:10:31.106Z,92.68
2022-12-11T00:11:29.126Z,92.78
2022-12-11T00:12:29.117Z,92.68
2022-12-11T00:13:29.269Z,92.88
2022-12-11T00:14:29.380Z,92.78
2022-12-11T00:15:29.518Z,92.78
2022-12-11T00:16:29.740Z,92.88
2022-12-11T00:17:29.787Z,92.88
2022-12-11T00:18:29.937Z,93.30
2022-12-11T00:19:30.047Z,93.51
2022-12-11T00:20:30.156Z,93.19
2022-12-11T00:21:30.251Z,93.72
2022-12-11T00:22:30.403Z,93.51
2022-12-11T00:23:30.504Z,93.51
2022-12-11T00:24:30.627Z,93.51
2022-12-11T00:25:30.715Z,93.51
2022-12-11T00:26:30.860Z,93.82
2022-12-11T00:27:30.998Z,93.82
2022-12-11T00:28:31.121Z,93.61
2022-12-11T00:29:31.202Z,93.72
2022-12-11T00:30:31.355Z,93.72
2022-12-11T00:31:31.568Z,93.82
2022-12-11T00:32:34.903Z,93.72
2022-12-11T00:33:32.739Z,93.93
2022-12-11T00:34:31.821Z,94.14
2022-12-11T00:35:31.921Z,94.57
2022-12-11T00:36:32.031Z,94.14
2022-12-11T00:37:32.239Z,94.03
2022-12-11T00:38:32.318Z,94.14
2022-12-11T00:39:32.401Z,93.93
2022-12-11T00:40:32.549Z,94.14
2022-12-11T00:41:32.651Z,94.25
2022-12-11T00:42:32.799Z,94.25
2022-12-11T00:43:32.971Z,94.35
2022-12-11T00:44:33.058Z,93.93
2022-12-11T00:45:33.260Z,93.93
2022-12-11T00:46:33.329Z,93.82
2022-12-11T00:47:33.437Z,93.82
2022-12-11T00:48:33.556Z,94.14
2022-12-11T00:49:33.704Z,94.03
2022-12-11T00:50:33.795Z,93.93
2022-12-11T00:51:33.957Z,93.93
2022-12-11T00:52:34.070Z,94.03
2022-12-11T00:53:34.185Z,94.14
2022-12-11T00:54:34.326Z,94.14
2022-12-11T00:55:34.480Z,93.82
2022-12-11T00:56:34.570Z,94.25
2022-12-11T00:57:34.745Z,94.14
2022-12-11T00:58:34.902Z,94.14
2022-12-11T00:59:34.939Z,94.57
2022-12-11T01:00:35.045Z,94.25
2022-12-11T01:01:35.261Z,94.25
2022-12-11T01:02:35.423Z,94.25
2022-12-11T01:03:35.385Z,94.46
2022-12-11T01:04:35.504Z,94.46
2022-12-11T01:05:35.601Z,94.46
2022-12-11T01:06:35.745Z,94.25
2022-12-11T01:07:36.000Z,94.35
2022-12-11T01:08:38.726Z,94.57
2022-12-11T01:09:36.103Z,94.25
2022-12-11T01:10:36.251Z,94.57
2022-12-11T01:11:36.339Z,94.78
2022-12-11T01:12:36.530Z,94.57
2022-12-11T01:13:36.619Z,94.46
2022-12-11T01:14:36.730Z,94.89
2022-12-11T01:15:41.190Z,94.89
2022-12-11T01:16:37.016Z,95.32
2022-12-11T01:17:37.051Z,95.21
2022-12-11T01:18:37.207Z,95.65
2022-12-11T01:19:37.242Z,95.54
2022-12-11T01:20:37.339Z,95.10
2022-12-11T01:21:37.438Z,95.43
2022-12-11T01:22:37.606Z,95.54
2022-12-11T01:23:37.708Z,95.76
2022-12-11T01:24:37.799Z,95.76
2022-12-11T01:25:37.940Z,95.43
2022-12-11T01:26:38.077Z,95.43
2022-12-11T01:27:38.227Z,95.65
2022-12-11T01:28:38.387Z,95.43
2022-12-11T01:29:38.487Z,95.87
2022-12-11T01:30:38.658Z,95.65
2022-12-11T01:31:38.785Z,95.65
2022-12-11T01:32:38.846Z,95.43
2022-12-11T01:33:38.943Z,95.65
2022-12-11T01:34:39.084Z,95.65
2022-12-11T01:35:39.225Z,95.43
2022-12-11T01:36:39.382Z,95.87
2022-12-11T01:37:39.503Z,95.54
2022-12-11T01:38:39.659Z,95.54
2022-12-11T01:39:39.743Z,95.65
2022-12-11T01:40:39.854Z,95.65
2022-12-11T01:41:39.972Z,95.87
2022-12-11T01:42:40.065Z,95.87
2022-12-11T01:43:40.234Z,95.87
2022-12-11T01:44:40.283Z,94.44
2022-12-11T01:45:40.451Z,94.33
2022-12-11T01:46:40.550Z,94.17
2022-12-11T01:47:40.693Z,94.49
2022-12-11T01:48:42.485Z,94.60
2022-12-11T01:49:40.913Z,94.76
2022-12-11T01:50:41.022Z,94.55
2022-12-11T01:51:41.219Z,94.39
2022-12-11T01:52:41.333Z,94.76
2022-12-11T01:53:41.487Z,94.49
2022-12-11T01:54:41.567Z,94.49
2022-12-11T01:55:41.698Z,94.28
2022-12-11T01:56:41.855Z,94.23
2022-12-11T01:57:41.997Z,94.44
2022-12-11T01:58:42.125Z,94.23
2022-12-11T01:59:42.252Z,94.28
2022-12-11T02:00:42.354Z,94.65
2022-12-11T02:01:42.578Z,94.92
2022-12-11T02:02:42.690Z,95.03
2022-12-11T02:03:42.859Z,95.08
2022-12-11T02:04:42.884Z,95.08
2022-12-11T02:05:43.035Z,95.03
2022-12-11T02:06:43.182Z,95.30
2022-12-11T02:07:43.353Z,95.25
2022-12-11T02:08:43.488Z,95.52
2022-12-11T02:09:43.522Z,95.68
2022-12-11T02:10:43.622Z,95.96
2022-12-11T02:11:43.851Z,95.57
2022-12-11T02:12:43.852Z,95.63
2022-12-11T02:13:44.030Z,95.85
2022-12-11T02:14:44.155Z,96.01
2022-12-11T02:15:44.243Z,95.63
2022-12-11T02:16:44.373Z,95.63
2022-12-11T02:17:44.448Z,95.68
2022-12-11T02:18:44.647Z,96.01
2022-12-11T02:19:44.699Z,96.13
2022-12-11T02:20:44.792Z,95.90
2022-12-11T02:21:44.960Z,96.18
2022-12-11T02:22:45.079Z,95.90
2022-12-11T02:23:45.290Z,95.96
2022-12-11T02:24:45.303Z,96.13
2022-12-11T02:25:45.428Z,96.24
2022-12-11T02:26:45.539Z,96.35
2022-12-11T02:27:45.630Z,96.40
2022-12-11T02:28:45.811Z,96.51
2022-12-11T02:29:45.926Z,96.29
2022-12-11T02:30:46.006Z,97.02
2022-12-11T02:31:46.200Z,96.85
2022-12-11T02:32:46.265Z,96.96
2022-12-11T02:33:46.354Z,96.79
2022-12-11T02:34:46.526Z,96.79
2022-12-11T02:35:46.636Z,96.68
2022-12-11T02:36:46.820Z,96.79
2022-12-11T02:37:46.927Z,96.85
2022-12-11T02:38:47.063Z,96.68
2022-12-11T02:39:47.254Z,96.91
2022-12-11T02:40:47.316Z,96.46
2022-12-11T02:41:47.446Z,96.85
2022-12-11T02:42:47.587Z,96.74
2022-12-11T02:43:47.725Z,97.08
2022-12-11T02:44:47.959Z,97.25
2022-12-11T02:45:48.021Z,97.42
2022-12-11T02:46:48.103Z,97.59
2022-12-11T02:47:48.192Z,97.93
2022-12-11T02:48:48.341Z,98.05
2022-12-11T02:49:48.499Z,98.05
2022-12-11T02:50:48.565Z,98.22
2022-12-11T02:51:48.808Z,97.76
2022-12-11T02:52:48.841Z,98.22
2022-12-11T02:53:48.939Z,98.45
2022-12-11T02:54:49.092Z,98.39
2022-12-11T02:55:49.260Z,98.74
2022-12-11T02:56:49.346Z,98.92
2022-12-11T02:57:49.441Z,98.92
2022-12-11T02:58:52.734Z,99.15
2022-12-11T02:59:50.677Z,98.92
2022-12-11T03:00:49.799Z,98.86
2022-12-11T03:01:49.936Z,98.57
2022-12-11T03:02:50.061Z,98.57
2022-12-11T03:03:50.138Z,98.68
2022-12-11T03:04:50.297Z,98.39
2022-12-11T03:05:50.334Z,98.45
2022-12-11T03:06:50.485Z,98.62
2022-12-11T03:07:50.637Z,98.62
2022-12-11T03:08:50.694Z,98.86
2022-12-11T03:09:50.847Z,98.62
2022-12-11T03:10:50.936Z,98.57
2022-12-11T03:11:51.105Z,98.62
2022-12-11T03:12:53.744Z,99.04
2022-12-11T03:13:51.352Z,99.27
2022-12-11T03:14:51.494Z,98.92
2022-12-11T03:15:51.582Z,99.51
2022-12-11T03:16:51.690Z,99.27
2022-12-11T03:17:51.781Z,99.09
2022-12-11T03:18:51.942Z,99.04
2022-12-11T03:19:52.048Z,98.98
2022-12-11T03:20:52.155Z,98.98
2022-12-11T03:21:52.239Z,99.04
2022-12-11T03:22:52.393Z,99.09
2022-12-11T03:23:53.827Z,99.45
2022-12-11T03:24:52.581Z,100.04
2022-12-11T03:25:52.761Z,100.47
2022-12-11T03:26:56.317Z,100.29
2022-12-11T03:27:52.967Z,100.59
2022-12-11T03:28:53.056Z,99.86
2022-12-11T03:29:53.198Z,99.51
2022-12-11T03:30:53.423Z,99.69
2022-12-11T03:31:53.527Z,99.09
2022-12-11T03:32:53.594Z,99.45
2022-12-11T03:33:53.697Z,99.63
2022-12-11T03:34:58.208Z,99.81
2022-12-11T03:35:54.003Z,99.45
2022-12-11T03:36:54.112Z,99.57
2022-12-11T03:37:54.214Z,99.63
2022-12-11T03:38:54.305Z,99.75
2022-12-11T03:39:54.394Z,99.27
2022-12-11T03:40:54.668Z,99.27
2022-12-11T03:41:54.632Z,99.45
2022-12-11T03:42:54.776Z,99.39
2022-12-11T03:43:54.891Z,99.33
2022-12-11T03:44:54.995Z,99.39
2022-12-11T03:45:55.181Z,99.93
2022-12-11T03:46:55.244Z,99.69
2022-12-11T03:47:55.341Z,98.98
2022-12-11T03:48:55.489Z,99.27
2022-12-11T03:49:55.590Z,99.15
2022-12-11T03:50:55.768Z,99.39
2022-12-11T03:51:55.960Z,99.63
2022-12-11T03:52:56.009Z,99.75
2022-12-11T03:53:56.150Z,99.86
2022-12-11T03:54:56.309Z,99.99
2022-12-11T03:55:56.450Z,100.17
2022-12-11T03:56:56.503Z,100.59
2022-12-11T03:57:56.621Z,100.83
2022-12-11T03:58:56.731Z,100.41
2022-12-11T03:59:56.830Z,100.35
2022-12-11T04:00:56.967Z,100.65
2022-12-11T04:01:57.163Z,101.01
2022-12-11T04:02:57.209Z,101.26
2022-12-11T04:03:57.376Z,101.01
2022-12-11T04:04:57.457Z,101.69
2022-12-11T04:05:57.683Z,101.82
2022-12-11T04:06:57.706Z,101.82
2022-12-11T04:07:57.855Z,101.26
2022-12-11T04:08:57.935Z,102.19
2022-12-11T04:09:58.063Z,102.19
2022-12-11T04:10:58.198Z,102.25
2022-12-11T04:11:58.405Z,102.44
2022-12-11T04:12:58.394Z,102.57
2022-12-11T04:13:58.544Z,102.44
2022-12-11T04:14:58.681Z,102.00
2022-12-11T04:15:58.854Z,101.94
2022-12-11T04:16:58.892Z,102.75
2022-12-11T04:17:58.983Z,102.63
2022-12-11T04:18:59.142Z,102.82
2022-12-11T04:19:59.238Z,103.01
2022-12-11T04:20:59.433Z,103.39
2022-12-11T04:21:59.543Z,103.46
2022-12-11T04:22:59.650Z,103.26
2022-12-11T04:23:59.761Z,103.91
2022-12-11T04:24:59.900Z,104.36
2022-12-11T04:26:00.110Z,104.89
2022-12-11T04:27:00.143Z,105.02
2022-12-11T04:28:00.232Z,105.42
2022-12-11T04:29:00.392Z,106.83
2022-12-11T04:30:00.494Z,105.89
2022-12-11T04:31:00.721Z,106.02
2022-12-11T04:32:00.799Z,107.18
2022-12-11T04:33:00.856Z,107.45
2022-12-11T04:34:00.948Z,107.38
2022-12-11T04:35:01.097Z,107.73
2022-12-11T04:36:01.285Z,108.01
2022-12-11T04:37:01.372Z,108.08
2022-12-11T04:38:01.533Z,108.36
2022-12-11T04:39:01.629Z,107.94
2022-12-11T04:40:01.728Z,108.36
2022-12-11T04:41:01.897Z,109.50
2022-12-11T04:42:01.970Z,109.86
2022-12-11T04:43:02.045Z,109.43
2022-12-11T04:44:02.145Z,110.00
2022-12-11T04:45:02.295Z,110.66
2022-12-11T04:46:02.488Z,111.47
2022-12-11T04:47:02.519Z,111.40
2022-12-11T04:48:02.673Z,112.22
2022-12-11T04:49:02.769Z,112.68
2022-12-11T04:50:02.924Z,112.83
2022-12-11T04:51:03.036Z,113.68
2022-12-11T04:52:03.236Z,113.99
2022-12-11T04:53:03.291Z,114.77
2022-12-11T04:54:03.381Z,115.01
2022-12-11T04:55:03.533Z,115.64
2022-12-11T04:56:03.642Z,115.96
2022-12-11T04:57:03.764Z,117.43
2022-12-11T04:58:03.865Z,117.35
2022-12-11T04:59:03.971Z,118.69
2022-12-11T05:00:04.071Z,120.40
2022-12-11T05:01:04.199Z,122.07
2022-12-11T05:02:04.381Z,123.15
2022-12-11T05:03:04.468Z,124.16
2022-12-11T05:04:04.580Z,124.16
2022-12-11T05:05:04.688Z,123.79
2022-12-11T05:06:04.800Z,124.81
2022-12-11T05:07:04.938Z,125.66
2022-12-11T05:08:05.100Z,125.85
2022-12-11T05:09:05.190Z,128.46
2022-12-11T05:10:05.298Z,130.68
2022-12-11T05:11:05.399Z,132.34
2022-12-11T05:12:05.580Z,132.34
2022-12-11T05:13:05.622Z,133.93
2022-12-11T05:14:05.726Z,135.12
2022-12-11T05:15:05.843Z,136.56
2022-12-11T05:16:05.985Z,137.91
2022-12-11T05:17:06.136Z,139.41
2022-12-11T05:18:06.245Z,140.11
2022-12-11T05:19:06.342Z,139.99
2022-12-11T05:20:06.503Z,139.18
2022-12-11T05:21:06.608Z,138.83
2022-12-11T05:22:06.744Z,139.64
2022-12-11T05:23:06.842Z,140.23
2022-12-11T05:24:06.962Z,140.70
2022-12-11T05:25:07.067Z,142.26
2022-12-11T05:26:07.155Z,142.99
2022-12-11T05:27:07.331Z,143.24
2022-12-11T05:28:07.390Z,143.49
2022-12-11T05:29:07.494Z,142.87
2022-12-11T05:30:07.590Z,143.73
2022-12-11T05:31:07.734Z,143.86
2022-12-11T05:32:07.853Z,143.86
2022-12-11T05:33:07.958Z,143.98
2022-12-11T05:34:08.061Z,143.49
2022-12-11T05:35:08.435Z,143.49
2022-12-11T05:36:08.299Z,143.12
2022-12-11T05:37:08.459Z,143.36
2022-12-11T05:38:08.519Z,143.49
2022-12-11T05:39:08.636Z,143.24
2022-12-11T05:40:08.726Z,142.75
2022-12-11T05:41:08.829Z,141.54
2022-12-11T05:42:08.960Z,140.94
2022-12-11T05:43:09.057Z,140.47
2022-12-11T05:44:09.215Z,139.53
2022-12-11T05:45:09.637Z,139.53
2022-12-11T05:46:09.525Z,138.60
2022-12-11T05:47:09.596Z,138.49
2022-12-11T05:48:09.706Z,138.37
2022-12-11T05:49:09.796Z,137.57
2022-12-11T05:50:09.904Z,137.46
2022-12-11T05:51:10.014Z,137.57
2022-12-11T05:52:10.193Z,137.91
2022-12-11T05:53:10.256Z,138.14
2022-12-11T05:54:10.373Z,138.26
2022-12-11T05:55:10.793Z,138.14
2022-12-11T05:56:10.582Z,138.95
2022-12-11T05:57:10.701Z,138.83
2022-12-11T05:58:10.809Z,139.29
2022-12-11T05:59:10.905Z,139.53
2022-12-11T06:00:11.022Z,141.18
2022-12-11T06:01:11.108Z,142.87
2022-12-11T06:02:11.326Z,142.87
2022-12-11T06:03:11.488Z,143.36
2022-12-11T06:04:11.441Z,143.49
2022-12-11T06:05:11.810Z,142.87
2022-12-11T06:06:11.671Z,142.14
2022-12-11T06:07:11.815Z,142.14
2022-12-11T06:08:11.978Z,142.75
2022-12-11T06:09:12.040Z,144.23
2022-12-11T06:10:12.150Z,146.00
2022-12-11T06:11:12.241Z,147.03
2022-12-11T06:12:12.519Z,147.16
2022-12-11T06:13:12.511Z,147.29
2022-12-11T06:14:12.647Z,147.42
2022-12-11T06:15:12.966Z,146.90
2022-12-11T06:16:12.930Z,147.16
2022-12-11T06:17:12.998Z,147.68
2022-12-11T06:18:13.098Z,147.03
2022-12-11T06:19:13.257Z,145.62
2022-12-11T06:20:13.369Z,144.86
2022-12-11T06:21:13.489Z,143.73
2022-12-11T06:22:13.594Z,142.99
2022-12-11T06:23:13.694Z,141.42
2022-12-11T06:24:13.807Z,140.23
2022-12-11T06:25:14.049Z,139.53
2022-12-11T06:26:14.024Z,138.03
2022-12-11T06:27:14.201Z,136.67
2022-12-11T06:28:14.303Z,137.12
2022-12-11T06:29:14.402Z,137.23
2022-12-11T06:30:14.508Z,137.01
2022-12-11T06:31:15.628Z,137.46
2022-12-11T06:32:14.833Z,137.91
2022-12-11T06:33:14.826Z,138.49
2022-12-11T06:34:14.980Z,138.49
2022-12-11T06:35:15.081Z,139.53
2022-12-11T06:36:15.182Z,139.29
2022-12-11T06:37:15.332Z,140.70
2022-12-11T06:38:15.431Z,141.06
2022-12-11T06:39:15.539Z,140.35
2022-12-11T06:40:15.649Z,140.59
2022-12-11T06:41:15.750Z,140.70
2022-12-11T06:42:15.910Z,140.59
2022-12-11T06:43:16.019Z,140.59
2022-12-11T06:44:16.121Z,140.11
2022-12-11T06:45:16.222Z,139.64
2022-12-11T06:46:16.454Z,140.23
2022-12-11T06:47:16.536Z,140.70
2022-12-11T06:48:16.588Z,140.59
2022-12-11T06:49:16.688Z,140.23
2022-12-11T06:50:16.800Z,140.11
2022-12-11T06:51:16.920Z,140.59
2022-12-11T06:52:18.735Z,139.64
2022-12-11T06:53:17.226Z,139.18
2022-12-11T06:54:17.223Z,139.41
2022-12-11T06:55:17.325Z,139.29
2022-12-11T06:56:17.477Z,139.29
2022-12-11T06:57:17.616Z,139.29
2022-12-11T06:58:17.824Z,139.29
2022-12-11T06:59:17.822Z,138.26
2022-12-11T07:00:17.914Z,137.46
2022-12-11T07:01:18.063Z,137.01
2022-12-11T07:02:18.233Z,136.11
2022-12-11T07:03:18.323Z,136.00
2022-12-11T07:04:18.434Z,135.67
2022-12-11T07:05:18.521Z,135.23
2022-12-11T07:06:18.631Z,135.01
2022-12-11T07:07:18.736Z,134.25
2022-12-11T07:08:18.970Z,134.25
2022-12-11T07:09:19.030Z,133.82
2022-12-11T07:10:19.143Z,133.71
2022-12-11T07:11:19.252Z,133.39
2022-12-11T07:12:19.358Z,132.02
2022-12-11T07:13:19.482Z,131.60
2022-12-11T07:14:19.598Z,131.40
2022-12-11T07:15:19.707Z,131.09
2022-12-11T07:16:19.875Z,130.57
2022-12-11T07:17:19.919Z,130.68
2022-12-11T07:18:20.075Z,131.19
2022-12-11T07:19:20.165Z,131.19
2022-12-11T07:20:20.285Z,131.40
2022-12-11T07:21:20.391Z,132.86
2022-12-11T07:22:20.496Z,133.50
2022-12-11T07:23:20.674Z,133.39
2022-12-11T07:24:20.732Z,132.86
2022-12-11T07:25:20.832Z,133.29
2022-12-11T07:26:20.933Z,133.71
2022-12-11T07:27:21.060Z,134.36
2022-12-11T07:28:21.201Z,135.34
2022-12-11T07:29:21.292Z,135.56
2022-12-11T07:30:21.454Z,136.00
2022-12-11T07:31:21.649Z,136.78
2022-12-11T07:32:21.822Z,136.67
2022-12-11T07:33:21.857Z,136.11
2022-12-11T07:34:21.953Z,136.56
2022-12-11T07:35:22.068Z,136.90
2022-12-11T07:36:22.200Z,136.78
2022-12-11T07:37:22.310Z,137.46
2022-12-11T07:38:22.559Z,139.29
2022-12-11T07:39:22.575Z,139.53
2022-12-11T07:40:22.681Z,139.41
2022-12-11T07:41:22.790Z,140.59
2022-12-11T07:42:22.888Z,141.18
2022-12-11T07:43:23.029Z,141.30
2022-12-11T07:44:23.145Z,141.78
2022-12-11T07:45:23.238Z,141.42
2022-12-11T07:46:23.342Z,142.51
2022-12-11T07:47:23.447Z,142.14
2022-12-11T07:48:23.587Z,140.47
2022-12-11T07:49:23.692Z,140.47
2022-12-11T07:50:23.809Z,139.41
2022-12-11T07:51:23.907Z,138.37
2022-12-11T07:52:24.066Z,137.57
2022-12-11T07:53:24.158Z,137.23
2022-12-11T07:54:24.259Z,137.91
2022-12-11T07:55:24.363Z,139.53
2022-12-11T07:56:24.466Z,140.47
2022-12-11T07:57:24.564Z,141.66
2022-12-11T07:58:24.697Z,142.02
2022-12-11T07:59:24.824Z,142.75
2022-12-11T08:00:24.934Z,143.12
2022-12-11T08:01:25.146Z,142.38
2022-12-11T08:02:25.207Z,141.78
2022-12-11T08:03:25.325Z,141.30
2022-12-11T08:04:25.385Z,141.06
2022-12-11T08:05:25.472Z,140.47
2022-12-11T08:06:25.582Z,139.64
2022-12-11T08:07:25.700Z,139.64
2022-12-11T08:08:25.881Z,140.47
2022-12-11T08:09:25.924Z,142.02
2022-12-11T08:10:26.092Z,142.75
2022-12-11T08:11:26.131Z,142.99
2022-12-11T08:12:26.319Z,144.23
2022-12-11T08:13:26.469Z,144.23
2022-12-11T08:14:26.510Z,144.73
2022-12-11T08:15:26.599Z,144.86
2022-12-11T08:16:26.791Z,146.00
2022-12-11T08:17:30.874Z,146.38
2022-12-11T08:18:28.037Z,146.12
2022-12-11T08:19:27.134Z,146.90
2022-12-11T08:20:27.248Z,147.55
2022-12-11T08:21:27.327Z,150.74
2022-12-11T08:22:27.448Z,151.15
2022-12-11T08:23:27.605Z,149.53
2022-12-11T08:24:27.654Z,149.80
2022-12-11T08:25:27.785Z,149.53
2022-12-11T08:26:27.918Z,148.20
2022-12-11T08:27:28.034Z,147.29
2022-12-11T08:28:28.174Z,146.38
2022-12-11T08:29:28.274Z,146.00
2022-12-11T08:30:28.472Z,145.11
2022-12-11T08:31:28.535Z,144.23
2022-12-11T08:32:28.704Z,144.60
2022-12-11T08:33:28.773Z,146.64
2022-12-11T08:34:28.875Z,146.51
2022-12-11T08:35:28.974Z,148.33
2022-12-11T08:36:29.070Z,149.40
2022-12-11T08:37:29.236Z,149.66
2022-12-11T08:38:29.405Z,149.93
2022-12-11T08:39:29.471Z,149.80
2022-12-11T08:40:29.569Z,151.29
2022-12-11T08:41:29.671Z,151.02
2022-12-11T08:42:29.781Z,150.07
2022-12-11T08:43:29.901Z,149.93
2022-12-11T08:44:30.018Z,150.07
2022-12-11T08:45:30.127Z,151.15
2022-12-11T08:46:30.268Z,151.29
2022-12-11T08:47:30.351Z,152.68
2022-12-11T08:48:30.536Z,153.52
2022-12-11T08:49:34.360Z,155.52
2022-12-11T08:50:30.716Z,155.52
2022-12-11T08:51:30.867Z,157.88
2022-12-11T08:52:31.036Z,159.99
2022-12-11T08:53:31.117Z,161.70
2022-12-11T08:54:31.193Z,162.96
2022-12-11T08:55:31.350Z,163.44
2022-12-11T08:56:31.446Z,165.88
2022-12-11T08:57:31.555Z,167.54
2022-12-11T08:58:31.674Z,168.90
2022-12-11T08:59:31.762Z,170.98
2022-12-11T09:00:31.935Z,172.39
2022-12-11T09:01:32.084Z,175.66
2022-12-11T09:02:32.208Z,179.05
2022-12-11T09:03:32.287Z,182.78
2022-12-11T09:04:32.384Z,185.41
2022-12-11T09:05:32.474Z,186.68
2022-12-11T09:06:32.643Z,186.68
2022-12-11T09:07:32.783Z,187.75
2022-12-11T09:08:32.946Z,191.58
2022-12-11T09:09:33.009Z,193.96
2022-12-11T09:10:33.118Z,195.12
2022-12-11T09:11:33.444Z,197.94
2022-12-11T09:12:33.478Z,201.34
2022-12-11T09:13:33.576Z,204.10
2022-12-11T09:14:33.620Z,207.98
2022-12-11T09:15:33.802Z,209.97
2022-12-11T09:16:33.864Z,209.71
2022-12-11T09:17:33.957Z,209.17
2022-12-11T09:18:34.107Z,207.85
2022-12-11T09:19:34.217Z,210.65
2022-12-11T09:20:34.316Z,215.21
2022-12-11T09:21:34.405Z,217.06
2022-12-11T09:22:34.564Z,215.35
2022-12-11T09:23:34.763Z,212.56
2022-12-11T09:24:34.805Z,210.38
2022-12-11T09:25:34.913Z,208.77
2022-12-11T09:26:35.015Z,215.21
2022-12-11T09:27:35.118Z,221.15
2022-12-11T09:28:35.235Z,225.87
2022-12-11T09:29:35.364Z,231.61
2022-12-11T09:30:35.524Z,237.82
2022-12-11T09:31:35.588Z,242.04
2022-12-11T09:32:35.766Z,242.04
2022-12-11T09:33:35.832Z,240.62
2022-12-11T09:34:35.924Z,245.48
2022-12-11T09:35:36.032Z,246.58
2022-12-11T09:36:36.133Z,247.51
2022-12-11T09:37:36.242Z,249.58
2022-12-11T09:38:36.431Z,255.21
2022-12-11T09:39:36.489Z,258.23
2022-12-11T09:40:36.579Z,256.41
2022-12-11T09:41:36.740Z,256.21
2022-12-11T09:42:36.853Z,259.86
2022-12-11T09:43:36.950Z,263.83
2022-12-11T09:44:37.061Z,266.40
2022-12-11T09:45:37.149Z,269.02
2022-12-11T09:46:37.361Z,272.15
2022-12-11T09:47:37.427Z,273.51
2022-12-11T09:48:37.587Z,278.15
2022-12-11T09:49:37.836Z,282.21
2022-12-11T09:50:37.828Z,286.40
2022-12-11T09:51:37.967Z,289.94
2022-12-11T09:52:38.185Z,284.91
2022-12-11T09:53:38.227Z,277.67
2022-12-11T09:54:38.509Z,277.91
2022-12-11T09:55:38.483Z,277.44
2022-12-11T09:56:38.648Z,281.25
2022-12-11T09:57:38.745Z,287.66
2022-12-11T09:58:38.897Z,287.91
2022-12-11T09:59:39.015Z,284.42
2022-12-11T10:00:39.115Z,290.46
2022-12-11T10:01:39.290Z,297.30
2022-12-11T10:02:39.504Z,301.40
2022-12-11T10:03:39.562Z,305.32
2022-12-11T10:04:39.750Z,302.23
2022-12-11T10:05:39.853Z,301.67
2022-12-11T10:06:39.956Z,301.95
2022-12-11T10:07:40.082Z,299.47
2022-12-11T10:08:40.182Z,294.89
2022-12-11T10:09:40.369Z,290.20
2022-12-11T10:10:40.451Z,284.42
2022-12-11T10:11:40.620Z,281.73
2022-12-11T10:12:40.832Z,281.49
2022-12-11T10:13:40.831Z,286.15
2022-12-11T10:14:41.010Z,288.92
2022-12-11T10:15:41.076Z,290.71
2022-12-11T10:16:41.199Z,293.05
2022-12-11T10:17:41.302Z,294.89
2022-12-11T10:18:41.397Z,293.31
2022-12-11T10:19:41.608Z,295.16
2022-12-11T10:20:41.657Z,298.38
2022-12-11T10:21:41.758Z,298.11
2022-12-11T10:22:41.857Z,294.89
2022-12-11T10:23:41.970Z,297.03
2022-12-11T10:25:09.962Z,298.11
2022-12-11T10:25:43.236Z,295.69
2022-12-11T10:26:42.336Z,293.58
2022-12-11T10:27:42.445Z,291.23
2022-12-11T10:28:42.593Z,285.90
2022-12-11T10:29:42.685Z,278.62
2022-12-11T10:30:42.945Z,275.81
2022-12-11T10:31:42.940Z,274.20
2022-12-11T10:32:43.121Z,277.21
2022-12-11T10:33:43.164Z,282.94
2022-12-11T10:34:43.323Z,281.73
2022-12-11T10:35:43.482Z,279.81
2022-12-11T10:36:43.530Z,275.11
2022-12-11T10:37:43.642Z,271.47
2022-12-11T10:38:43.740Z,268.58
2022-12-11T10:39:43.894Z,259.66
2022-12-11T10:40:44.112Z,255.41
2022-12-11T10:41:44.145Z,260.48
2022-12-11T10:42:45.760Z,268.14
2022-12-11T10:43:44.389Z,273.28
2022-12-11T10:44:44.481Z,269.69
2022-12-11T10:45:44.681Z,266.62
2022-12-11T10:46:44.848Z,264.05
2022-12-11T10:47:44.892Z,268.80
2022-12-11T10:48:45.513Z,277.21
2022-12-11T10:49:45.175Z,281.73
2022-12-11T10:50:45.327Z,290.46
2022-12-11T10:51:45.427Z,299.74
2022-12-11T10:52:45.646Z,307.61
2022-12-11T10:53:45.686Z,301.40
2022-12-11T10:54:45.826Z,306.18
2022-12-11T10:55:45.987Z,308.77
2022-12-11T10:56:46.096Z,307.04
2022-12-11T10:57:46.252Z,303.91
2022-12-11T10:58:46.328Z,299.74
2022-12-11T10:59:46.478Z,294.63
2022-12-11T11:00:46.625Z,300.29
2022-12-11T11:01:46.822Z,305.61
2022-12-11T11:02:46.952Z,312.89
2022-12-11T11:03:47.034Z,311.70
2022-12-11T11:04:47.134Z,312.60
2022-12-11T11:05:49.460Z,312.60
2022-12-11T11:06:47.427Z,309.94
2022-12-11T11:07:47.548Z,311.41
2022-12-11T11:08:47.646Z,320.85
2022-12-11T11:09:47.805Z,328.23
2022-12-11T11:10:47.980Z,327.90
2022-12-11T11:11:48.063Z,331.55
2022-12-11T11:12:48.262Z,331.55
2022-12-11T11:13:48.341Z,333.91
2022-12-11T11:14:48.518Z,339.08
2022-12-11T11:15:48.695Z,341.91
2022-12-11T11:16:48.762Z,345.51
2022-12-11T11:17:55.001Z,351.43
2022-12-11T11:18:49.950Z,362.70
2022-12-11T11:19:49.070Z,361.10
2022-12-11T11:20:49.249Z,355.24
2022-12-11T11:21:49.349Z,342.27
2022-12-11T11:22:49.497Z,337.69
2022-12-11T11:23:53.224Z,340.49
2022-12-11T11:24:49.680Z,343.70
2022-12-11T11:25:49.807Z,354.85
2022-12-11T11:27:12.266Z,361.90
2022-12-11T11:27:51.031Z,367.99
2022-12-11T11:28:50.192Z,371.32
2022-12-11T11:29:53.121Z,366.75
2022-12-11T11:30:50.472Z,361.90
2022-12-11T11:31:50.498Z,370.90
2022-12-11T11:32:50.638Z,374.71
2022-12-11T11:33:50.734Z,384.56
2022-12-11T11:34:50.845Z,387.47
2022-12-11T11:35:51.124Z,380.83
2022-12-11T11:36:51.055Z,382.58
2022-12-11T11:37:51.215Z,387.47
2022-12-11T11:38:51.293Z,390.65
2022-12-11T11:39:51.443Z,392.48
2022-12-11T11:40:51.595Z,388.14
2022-12-11T11:41:51.700Z,389.96
2022-12-11T11:42:51.856Z,392.95
2022-12-11T11:43:51.961Z,397.63
2022-12-11T11:44:52.112Z,388.60
2022-12-11T11:45:52.230Z,380.83
2022-12-11T11:46:52.360Z,386.35
2022-12-11T11:47:52.450Z,392.02
2022-12-11T11:48:52.560Z,391.79
2022-12-11T11:49:52.659Z,387.69
2022-12-11T11:50:52.833Z,377.73
2022-12-11T11:51:52.949Z,381.27
2022-12-11T11:52:53.223Z,406.61
2022-12-11T11:53:53.216Z,428.28
2022-12-11T11:54:53.309Z,439.57
2022-12-11T11:55:53.497Z,447.24
2022-12-11T11:56:53.604Z,448.44
2022-12-11T11:57:53.680Z,455.18
2022-12-11T11:58:53.839Z,453.63
2022-12-11T11:59:53.957Z,447.24
2022-12-11T12:00:54.058Z,446.64
2022-12-11T12:01:54.223Z,449.95
2022-12-11T12:02:54.316Z,453.01
2022-12-11T12:03:54.372Z,455.80
2022-12-11T12:04:54.515Z,451.17
2022-12-11T12:05:54.724Z,435.55
2022-12-11T12:06:54.754Z,429.94
2022-12-11T12:07:54.902Z,434.70
2022-12-11T12:08:54.987Z,437.27
2022-12-11T12:09:55.145Z,443.67
2022-12-11T12:10:55.235Z,457.05
2022-12-11T12:11:55.399Z,462.44
2022-12-11T12:12:55.528Z,462.44
2022-12-11T12:13:55.627Z,451.17
2022-12-11T12:14:55.712Z,424.73
2022-12-11T12:15:55.882Z,426.64
2022-12-11T12:16:55.973Z,431.61
2022-12-11T12:17:56.541Z,432.73
2022-12-11T12:18:56.183Z,431.05
2022-12-11T12:19:56.291Z,430.21
2022-12-11T12:20:56.442Z,421.78
2022-12-11T12:21:56.520Z,410.11
2022-12-11T12:22:56.638Z,405.37
2022-12-11T12:23:56.779Z,412.13
2022-12-11T12:24:56.932Z,415.73
2022-12-11T12:25:57.058Z,423.12
2022-12-11T12:26:57.183Z,433.29
2022-12-11T12:27:57.288Z,442.20
2022-12-11T12:28:57.392Z,434.70
2022-12-11T12:29:57.527Z,423.39
2022-12-11T12:30:57.687Z,421.25
2022-12-11T12:31:57.863Z,418.60
2022-12-11T12:32:58.066Z,408.60
2022-12-11T12:33:58.047Z,400.50
2022-12-11T12:34:58.186Z,389.28
2022-12-11T12:36:02.131Z,377.30
2022-12-11T12:36:59.465Z,386.57